Time;durP1;ratioP1;P1;durP2;ratioP2;P2;SDS_P1;SDS_P2;PMS_P1;PMS_P2;Temp;Humidity;BMP_temperature;BMP_pressure;BME280_temperature;BME280_humidity;BME280_pressure;Samples;Min_cycle;Max_cycle;Signal;HPM_P1;HPM_P2
2020/12/18 00:00:22;;;;;;;;;;;;;;;;;;5040109;28;19997;-69
2020/12/18 00:02:49;;;;;;;;;;;;;;;;;;5028366;28;19925;-68
2020/12/18 00:05:16;;;;;;;;;;;;;;;;;;5035372;28;19933;-67
2020/12/18 00:07:42;;;;;;;;;;;;;;;;;;5031191;28;19925;-67
2020/12/18 00:10:09;;;;;;;;;;;;;;;;;;5038410;28;19924;-68
2020/12/18 00:12:35;;;;;;;;;;;;;;;;;;5031493;28;20016;-67
2020/12/18 00:15:02;;;;;;;;;;;;;;;;;;5036662;28;19993;-69
2020/12/18 00:17:28;;;;;;;;;;;;;;;;;;5036930;28;19925;-69
2020/12/18 00:19:55;;;;;;;;;;;;;;;;;;5037460;28;19955;-67
2020/12/18 00:22:21;;;;;;;;;;;;;;;;;;5028972;28;19932;-67
2020/12/18 00:24:48;;;;;;;;;;;;;;;;;;5035614;28;19925;-67
2020/12/18 00:27:14;;;;;;;;;;;;;;;;;;5019851;28;19926;-66
2020/12/18 00:29:41;;;;;;;;;;;;;;;;;;5028507;28;19931;-68
2020/12/18 00:32:07;;;;;;;;;;;;;;;;;;5031446;28;19933;-67
2020/12/18 00:34:34;;;;;;;;;;;;;;;;;;5031920;28;20042;-67
2020/12/18 00:37:00;;;;;;;;;;;;;;;;;;5032130;28;19925;-67
2020/12/18 00:39:27;;;;;;;;;;;;;;;;;;5031439;28;20015;-67
2020/12/18 00:41:53;;;;;;;;;;;;;;;;;;5028578;28;20030;-68
2020/12/18 00:44:20;;;;;;;;;;;;;;;;;;5022907;28;20348;-66
2020/12/18 00:46:46;;;;;;;;;;;;;;;;;;5027528;28;19925;-66
2020/12/18 00:49:13;;;;;;;;;;;;;;;;;;5029824;28;19977;-68
2020/12/18 00:51:39;;;;;;;;;;;;;;;;;;5032266;28;20300;-68
2020/12/18 00:54:06;;;;;;;;;;;;;;;;;;5025746;28;19925;-69
2020/12/18 00:56:32;;;;;;;;;;;;;;;;;;5032512;28;19925;-68
2020/12/18 00:58:59;;;;;;;;;;;;;;;;;;5026652;28;20210;-68
2020/12/18 01:01:25;;;;;;;;;;;;;;;;;;5033138;28;20035;-68
2020/12/18 01:03:52;;;;;;;;;;;;;;;;;;5029747;28;20012;-67
2020/12/18 01:06:18;;;;;;;;;;;;;;;;;;5015136;28;19925;-68
2020/12/18 01:08:45;;;;;;;;;;;;;;;;;;5014769;28;19929;-68
2020/12/18 01:11:11;;;;;;;;;;;;;;;;;;5023685;28;19931;-69
2020/12/18 01:13:38;;;;;;;;;;;;;;;;;;5030480;28;19925;-68
2020/12/18 01:16:04;;;;;;;;;;;;;;;;;;5022755;28;19935;-67
2020/12/18 01:18:31;;;;;;;;;;;;;;;;;;5031162;28;19925;-67
2020/12/18 01:20:57;;;;;;;;;;;;;;;;;;5036031;28;20291;-67
2020/12/18 01:23:24;;;;;;;;;;;;;;;;;;5027136;28;19925;-68
2020/12/18 01:25:50;;;;;;;;;;;;;;;;;;5030727;28;20430;-67
2020/12/18 01:28:17;;;;;;;;;;;;;;;;;;5031877;28;20012;-67
2020/12/18 01:30:43;;;;;;;;;;;;;;;;;;5036255;28;20296;-67
2020/12/18 01:33:10;;;;;;;;;;;;;;;;;;5036291;28;20012;-67
2020/12/18 01:35:36;;;;;;;;;;;;;;;;;;5023893;28;20353;-67
2020/12/18 01:38:03;;;;;;;;;;;;;;;;;;5027434;28;19929;-66
2020/12/18 01:40:29;;;;;;;;;;;;;;;;;;5030500;28;20369;-66
2020/12/18 01:42:56;;;;;;;;;;;;;;;;;;5027147;28;19933;-66
2020/12/18 01:45:23;;;;;;;;;;;;;;;;;;5035993;28;19925;-66
2020/12/18 01:47:49;;;;;;;;;;;;;;;;;;5035029;28;20460;-67
2020/12/18 01:50:16;;;;;;;;;;;;;;;;;;5033528;28;19925;-66
2020/12/18 01:52:42;;;;;;;;;;;;;;;;;;5029559;28;20178;-66
2020/12/18 01:55:09;;;;;;;;;;;;;;;;;;5031316;28;19925;-66
2020/12/18 01:57:35;;;;;;;;;;;;;;;;;;5032567;28;19929;-66
2020/12/18 02:00:02;;;;;;;;;;;;;;;;;;5026442;28;19925;-66
2020/12/18 02:02:28;;;;;;;;;;;;;;;;;;5018218;28;19925;-66
2020/12/18 02:04:55;;;;;;;;;;;;;;;;;;5029078;28;19968;-66
2020/12/18 02:07:21;;;;;;;;;;;;;;;;;;5022760;28;19926;-67
2020/12/18 02:09:48;;;;;;;;;;;;;;;;;;5035894;28;19948;-66
2020/12/18 02:12:14;;;;;;;;;;;;;;;;;;5027765;28;19929;-66
2020/12/18 02:14:41;;;;;;;;;;;;;;;;;;5016139;28;19926;-66
2020/12/18 02:17:07;;;;;;;;;;;;;;;;;;5022944;28;19925;-66
2020/12/18 02:19:34;;;;;;;;;;;;;;;;;;5027136;28;19931;-67
2020/12/18 02:22:00;;;;;;;;;;;;;;;;;;5038775;28;19931;-66
2020/12/18 02:24:27;;;;;;;;;;;;;;;;;;5017263;28;19925;-67
2020/12/18 02:26:53;;;;;;;;;;;;;;;;;;5023842;28;19979;-67
2020/12/18 02:29:19;;;;;;;;;;;;;;;;;;5034805;28;20308;-67
2020/12/18 02:31:46;;;;;;;;;;;;;;;;;;5033993;28;19925;-68
2020/12/18 02:34:12;;;;;;;;;;;;;;;;;;5031565;28;19947;-67
2020/12/18 02:36:39;;;;;;;;;;;;;;;;;;5035052;28;19925;-67
2020/12/18 02:39:05;;;;;;;;;;;;;;;;;;5034237;28;19955;-67
2020/12/18 02:41:32;;;;;;;;;;;;;;;;;;5022146;28;19971;-68
2020/12/18 02:43:58;;;;;;;;;;;;;;;;;;5024386;28;19951;-67
2020/12/18 02:46:25;;;;;;;;;;;;;;;;;;5030280;28;19933;-67
2020/12/18 02:48:51;;;;;;;;;;;;;;;;;;5018008;28;19925;-67
2020/12/18 02:51:18;;;;;;;;;;;;;;;;;;5033825;28;19925;-67
2020/12/18 02:53:44;;;;;;;;;;;;;;;;;;5032343;28;20388;-67
2020/12/18 02:56:11;;;;;;;;;;;;;;;;;;5032005;28;19929;-67
2020/12/18 02:58:38;;;;;;;;;;;;;;;;;;5029230;28;20393;-68
2020/12/18 03:01:04;;;;;;;;;;;;;;;;;;5027883;28;20020;-68
2020/12/18 03:03:31;;;;;;;;;;;;;;;;;;5026063;28;19925;-67
2020/12/18 03:05:57;;;;;;;;;;;;;;;;;;5034324;28;20340;-67
2020/12/18 03:08:24;;;;;;;;;;;;;;;;;;5034048;28;19933;-68
2020/12/18 03:10:50;;;;;;;;;;;;;;;;;;5023985;28;19925;-68
2020/12/18 03:13:17;;;;;;;;;;;;;;;;;;5034077;28;20197;-67
2020/12/18 03:15:43;;;;;;;;;;;;;;;;;;5029724;28;19925;-68
2020/12/18 03:18:09;;;;;;;;;;;;;;;;;;5021844;28;20314;-67
2020/12/18 03:20:36;;;;;;;;;;;;;;;;;;5021289;28;19929;-67
2020/12/18 03:23:02;;;;;;;;;;;;;;;;;;5014001;28;19931;-67
2020/12/18 03:25:29;;;;;;;;;;;;;;;;;;5034177;28;20011;-67
2020/12/18 03:27:55;;;;;;;;;;;;;;;;;;5025426;28;19925;-67
2020/12/18 03:30:22;;;;;;;;;;;;;;;;;;5033210;28;19932;-68
2020/12/18 03:32:49;;;;;;;;;;;;;;;;;;5030305;28;20008;-67
2020/12/18 03:35:15;;;;;;;;;;;;;;;;;;5023781;28;19929;-67
2020/12/18 03:37:41;;;;;;;;;;;;;;;;;;5033825;28;19955;-67
2020/12/18 03:40:08;;;;;;;;;;;;;;;;;;5031601;28;19925;-67
2020/12/18 03:42:34;;;;;;;;;;;;;;;;;;5034115;28;20246;-67
2020/12/18 03:45:01;;;;;;;;;;;;;;;;;;5013529;28;19929;-67
2020/12/18 03:47:27;;;;;;;;;;;;;;;;;;5031817;28;19925;-67
2020/12/18 03:49:54;;;;;;;;;;;;;;;;;;5015978;28;19932;-66
2020/12/18 03:52:20;;;;;;;;;;;;;;;;;;5015749;28;19935;-66
2020/12/18 03:54:47;;;;;;;;;;;;;;;;;;5030714;28;19925;-69
2020/12/18 03:57:13;;;;;;;;;;;;;;;;;;5031144;28;19933;-67
2020/12/18 03:59:40;;;;;;;;;;;;;;;;;;5029869;28;20328;-67
2020/12/18 04:02:06;;;;;;;;;;;;;;;;;;5032754;28;19978;-66
2020/12/18 04:04:33;;;;;;;;;;;;;;;;;;5022737;28;20080;-66
2020/12/18 04:06:59;;;;;;;;;;;;;;;;;;5023385;28;19930;-66
2020/12/18 04:09:26;;;;;;;;;;;;;;;;;;5023847;28;19931;-66
2020/12/18 04:11:52;;;;;;;;;;;;;;;;;;5032759;28;19940;-67
2020/12/18 04:14:19;;;;;;;;;;;;;;;;;;5028088;28;19929;-66
2020/12/18 04:16:45;;;;;;;;;;;;;;;;;;5020376;28;20344;-66
2020/12/18 04:19:12;;;;;;;;;;;;;;;;;;5025913;28;19925;-66
2020/12/18 04:21:38;;;;;;;;;;;;;;;;;;5034213;28;20024;-66
2020/12/18 04:24:05;;;;;;;;;;;;;;;;;;5028122;28;19928;-67
2020/12/18 04:26:31;;;;;;;;;;;;;;;;;;5017327;28;19925;-67
2020/12/18 04:28:58;;;;;;;;;;;;;;;;;;5024089;28;19925;-67
2020/12/18 04:31:25;;;;;;;;;;;;;;;;;;5027862;28;20288;-67
2020/12/18 04:33:51;;;;;;;;;;;;;;;;;;5030855;28;19926;-68
2020/12/18 04:36:18;;;;;;;;;;;;;;;;;;5029054;28;19968;-66
2020/12/18 04:38:44;;;;;;;;;;;;;;;;;;5030916;28;19925;-66
2020/12/18 04:41:10;;;;;;;;;;;;;;;;;;5033036;28;19986;-65
2020/12/18 04:43:37;;;;;;;;;;;;;;;;;;5025060;28;19925;-67
2020/12/18 04:46:03;;;;;;;;;;;;;;;;;;5028942;28;20389;-66
2020/12/18 04:48:30;;;;;;;;;;;;;;;;;;5021611;28;19925;-66
2020/12/18 04:50:57;;;;;;;;;;;;;;;;;;5024517;28;19925;-67
2020/12/18 04:53:23;;;;;;;;;;;;;;;;;;5024471;28;19987;-66
2020/12/18 04:55:50;;;;;;;;;;;;;;;;;;5032380;28;19925;-66
2020/12/18 04:58:16;;;;;;;;;;;;;;;;;;5045996;23;20028;-65
2020/12/18 05:00:43;;;;;;;;;;;;;;;;;;5032499;28;19925;-65
2020/12/18 05:03:09;;;;;;;;;;;;;;;;;;5031511;28;20381;-65
2020/12/18 05:05:36;;;;;;;;;;;;;;;;;;5031414;28;19925;-65
2020/12/18 05:08:02;;;;;;;;;;;;;;;;;;5031613;28;19999;-66
2020/12/18 05:10:29;;;;;;;;;;;;;;;;;;5030728;28;20517;-65
2020/12/18 05:12:55;;;;;;;;;;;;;;;;;;5028135;28;19925;-64
2020/12/18 05:15:22;;;;;;;;;;;;;;;;;;5030792;28;19932;-65
2020/12/18 05:17:48;;;;;;;;;;;;;;;;;;5031510;28;19925;-65
2020/12/18 05:20:15;;;;;;;;;;;;;;;;;;5029983;28;19926;-64
2020/12/18 05:22:41;;;;;;;;;;;;;;;;;;5032443;28;20340;-64
2020/12/18 05:25:09;;;;;;;;;;;;;;;;;;5031495;28;19966;-65
2020/12/18 05:27:36;;;;;;;;;;;;;;;;;;5032141;28;19929;-64
2020/12/18 05:30:04;;;;;;;;;;;;;;;;;;5032164;28;19940;-65
2020/12/18 05:32:30;;;;;;;;;;;;;;;;;;5032225;28;19925;-64
2020/12/18 05:34:57;;;;;;;;;;;;;;;;;;5032397;28;20381;-65
2020/12/18 05:37:25;;;;;;;;;;;;;;;;;;5031801;28;19925;-65
2020/12/18 05:39:51;;;;;;;;;;;;;;;;;;5031928;28;19925;-65
2020/12/18 05:42:17;;;;;;;;;;;;;;;;;;5032070;28;19925;-65
2020/12/18 05:44:44;;;;;;;;;;;;;;;;;;5030580;28;19931;-65
2020/12/18 05:47:10;;;;;;;;;;;;;;;;;;5031265;28;19951;-65
2020/12/18 05:49:37;;;;;;;;;;;;;;;;;;5031816;28;19925;-66
2020/12/18 05:52:03;;;;;;;;;;;;;;;;;;5031643;28;20377;-63
2020/12/18 05:54:30;;;;;;;;;;;;;;;;;;5032043;28;20012;-70
2020/12/18 05:56:56;;;;;;;;;;;;;;;;;;5030575;28;20393;-66
2020/12/18 05:59:23;;;;;;;;;;;;;;;;;;5031463;28;19925;-64
2020/12/18 06:01:49;;;;;;;;;;;;;;;;;;5031395;28;19932;-64
2020/12/18 06:04:16;;;;;;;;;;;;;;;;;;5031334;28;19929;-66
2020/12/18 06:06:42;;;;;;;;;;;;;;;;;;5031588;28;19929;-65
2020/12/18 06:09:09;;;;;;;;;;;;;;;;;;5029942;28;19974;-65
2020/12/18 06:11:35;;;;;;;;;;;;;;;;;;5024300;28;19925;-65
2020/12/18 06:14:02;;;;;;;;;;;;;;;;;;5025590;28;19979;-65
2020/12/18 06:16:28;;;;;;;;;;;;;;;;;;5033738;28;20385;-64
2020/12/18 06:18:55;;;;;;;;;;;;;;;;;;5028787;28;19925;-66
2020/12/18 06:21:21;;;;;;;;;;;;;;;;;;5028685;28;19925;-65
2020/12/18 06:23:48;;;;;;;;;;;;;;;;;;5022975;28;19932;-64
2020/12/18 06:26:14;;;;;;;;;;;;;;;;;;5034616;28;19925;-65
2020/12/18 06:28:41;;;;;;;;;;;;;;;;;;5034361;28;19925;-65
2020/12/18 06:31:07;;;;;;;;;;;;;;;;;;5032606;28;19925;-65
2020/12/18 06:33:34;;;;;;;;;;;;;;;;;;5035223;28;19925;-66
2020/12/18 06:36:00;;;;;;;;;;;;;;;;;;5020838;28;19972;-65
2020/12/18 06:38:27;;;;;;;;;;;;;;;;;;5035629;28;20288;-66
2020/12/18 06:40:53;;;;;;;;;;;;;;;;;;5035018;28;19925;-64
2020/12/18 06:43:20;;;;;;;;;;;;;;;;;;5032700;28;19925;-65
2020/12/18 06:45:46;;;;;;;;;;;;;;;;;;5034817;28;19932;-64
2020/12/18 06:48:12;;;;;;;;;;;;;;;;;;5034863;28;20296;-65
2020/12/18 06:50:39;;;;;;;;;;;;;;;;;;5023798;28;19939;-66
2020/12/18 06:53:06;;;;;;;;;;;;;;;;;;5019576;28;19925;-63
2020/12/18 06:55:33;;;;;;;;;;;;;;;;;;5018305;28;20009;-64
2020/12/18 06:58:00;;;;;;;;;;;;;;;;;;5034990;28;19925;-64
2020/12/18 07:00:26;;;;;;;;;;;;;;;;;;5034381;28;20385;-63
2020/12/18 07:02:53;;;;;;;;;;;;;;;;;;5035057;28;19929;-63
2020/12/18 07:05:19;;;;;;;;;;;;;;;;;;5018155;28;19972;-63
2020/12/18 07:07:46;;;;;;;;;;;;;;;;;;5031104;28;19925;-63
2020/12/18 07:10:12;;;;;;;;;;;;;;;;;;5034967;28;20320;-63
2020/12/18 07:12:39;;;;;;;;;;;;;;;;;;5034624;28;20027;-63
2020/12/18 07:15:05;;;;;;;;;;;;;;;;;;5034892;28;20246;-63
2020/12/18 07:17:32;;;;;;;;;;;;;;;;;;5035302;28;19929;-63
2020/12/18 07:19:58;;;;;;;;;;;;;;;;;;5030033;28;19929;-64
2020/12/18 07:22:25;;;;;;;;;;;;;;;;;;5033930;28;20313;-62
2020/12/18 07:24:51;;;;;;;;;;;;;;;;;;5035106;28;20015;-64
2020/12/18 07:27:18;;;;;;;;;;;;;;;;;;5027371;28;20020;-65
2020/12/18 07:29:44;;;;;;;;;;;;;;;;;;5026382;28;19932;-63
2020/12/18 07:32:11;;;;;;;;;;;;;;;;;;5034547;28;19924;-63
2020/12/18 07:34:37;;;;;;;;;;;;;;;;;;5033617;28;19925;-64
2020/12/18 07:37:04;;;;;;;;;;;;;;;;;;5032739;28;20278;-64
2020/12/18 07:39:30;;;;;;;;;;;;;;;;;;5028252;28;19925;-63
2020/12/18 07:41:57;;;;;;;;;;;;;;;;;;5033488;28;20370;-64
2020/12/18 07:44:23;;;;;;;;;;;;;;;;;;5033736;28;19978;-63
2020/12/18 07:46:50;;;;;;;;;;;;;;;;;;5034043;28;19932;-64
2020/12/18 07:49:16;;;;;;;;;;;;;;;;;;5034552;28;19931;-64
2020/12/18 07:51:43;;;;;;;;;;;;;;;;;;5032115;28;19943;-65
2020/12/18 07:54:10;;;;;;;;;;;;;;;;;;5030738;28;19930;-64
2020/12/18 07:56:36;;;;;;;;;;;;;;;;;;5031462;28;19936;-64
2020/12/18 07:59:05;;;;;;;;;;;;;;;;;;5033221;28;19925;-65
2020/12/18 08:01:32;;;;;;;;;;;;;;;;;;5032822;28;20019;-64
2020/12/18 08:03:58;;;;;;;;;;;;;;;;;;5023383;28;19937;-65
2020/12/18 08:06:25;;;;;;;;;;;;;;;;;;5034037;28;20412;-64
2020/12/18 08:08:51;;;;;;;;;;;;;;;;;;5028680;28;19932;-66
2020/12/18 08:11:18;;;;;;;;;;;;;;;;;;5021460;28;20012;-64
2020/12/18 08:13:44;;;;;;;;;;;;;;;;;;5030452;28;19931;-64
2020/12/18 08:16:11;;;;;;;;;;;;;;;;;;5028872;28;20408;-65
2020/12/18 08:18:37;;;;;;;;;;;;;;;;;;5021731;28;19925;-64
2020/12/18 08:21:04;;;;;;;;;;;;;;;;;;5032254;28;19925;-64
2020/12/18 08:23:30;;;;;;;;;;;;;;;;;;5027725;28;19925;-65
2020/12/18 08:25:57;;;;;;;;;;;;;;;;;;5031808;28;20446;-62
2020/12/18 08:28:23;;;;;;;;;;;;;;;;;;5024494;28;20012;-63
2020/12/18 08:30:50;;;;;;;;;;;;;;;;;;5021073;28;19924;-64
2020/12/18 08:33:16;;;;;;;;;;;;;;;;;;5023855;28;19925;-64
2020/12/18 08:35:43;;;;;;;;;;;;;;;;;;5012937;28;19999;-65
2020/12/18 08:38:09;;;;;;;;;;;;;;;;;;5026032;28;20441;-63
2020/12/18 08:40:36;;;;;;;;;;;;;;;;;;5016385;28;20020;-63
2020/12/18 08:43:02;;;;;;;;;;;;;;;;;;5032512;28;20024;-63
2020/12/18 08:45:29;;;;;;;;;;;;;;;;;;5022959;28;19929;-62
2020/12/18 08:47:55;;;;;;;;;;;;;;;;;;5026325;28;20363;-63
2020/12/18 08:50:22;;;;;;;;;;;;;;;;;;5019431;28;19929;-66
2020/12/18 08:52:48;;;;;;;;;;;;;;;;;;5027829;28;20252;-65
2020/12/18 08:55:14;;;;;;;;;;;;;;;;;;5020865;28;19931;-63
2020/12/18 08:57:41;;;;;;;;;;;;;;;;;;5028521;28;19948;-66
2020/12/18 09:00:07;;;;;;;;;;;;;;;;;;5032383;28;19931;-64
2020/12/18 09:02:34;;;;;;;;;;;;;;;;;;5032284;28;19925;-66
2020/12/18 09:05:00;;;;;;;;;;;;;;;;;;5038795;28;19931;-65
2020/12/18 09:07:27;;;;;;;;;;;;;;;;;;5018781;28;19953;-65
2020/12/18 09:09:53;;;;;;;;;;;;;;;;;;5023958;28;19929;-64
2020/12/18 09:12:20;;;;;;;;;;;;;;;;;;5030409;28;19925;-64
2020/12/18 09:14:47;;;;;;;;;;;;;;;;;;5023101;28;20309;-65
2020/12/18 09:17:13;;;;;;;;;;;;;;;;;;5029613;28;19929;-66
2020/12/18 09:19:40;;;;;;;;;;;;;;;;;;5024959;28;20381;-65
2020/12/18 09:22:06;;;;;;;;;;;;;;;;;;5024316;28;20004;-65
2020/12/18 09:24:33;;;;;;;;;;;;;;;;;;5028301;28;19925;-62
2020/12/18 09:26:59;;;;;;;;;;;;;;;;;;5031277;28;20008;-66
2020/12/18 09:29:25;;;;;;;;;;;;;;;;;;5032170;28;20270;-66
2020/12/18 09:31:52;;;;;;;;;;;;;;;;;;5028650;28;19931;-69
2020/12/18 09:34:19;;;;;;;;;;;;;;;;;;5030112;28;19936;-65
2020/12/18 09:36:45;;;;;;;;;;;;;;;;;;5026720;28;20451;-65
2020/12/18 09:39:12;;;;;;;;;;;;;;;;;;5030989;28;19929;-64
2020/12/18 09:41:38;;;;;;;;;;;;;;;;;;5028887;28;20274;-66
2020/12/18 09:44:04;;;;;;;;;;;;;;;;;;5031755;28;19932;-65
2020/12/18 09:46:31;;;;;;;;;;;;;;;;;;5032146;28;19929;-64
2020/12/18 09:48:57;;;;;;;;;;;;;;;;;;5031188;28;20123;-65
2020/12/18 09:51:24;;;;;;;;;;;;;;;;;;5035151;28;20028;-66
2020/12/18 09:53:51;;;;;;;;;;;;;;;;;;5035631;28;19933;-65
2020/12/18 09:56:17;;;;;;;;;;;;;;;;;;5035840;28;20366;-66
2020/12/18 09:58:44;;;;;;;;;;;;;;;;;;5033479;28;19932;-65
2020/12/18 10:01:10;;;;;;;;;;;;;;;;;;5032992;28;20429;-65
2020/12/18 10:03:37;;;;;;;;;;;;;;;;;;5034958;28;19960;-65
2020/12/18 10:06:03;;;;;;;;;;;;;;;;;;5033525;28;19952;-65
2020/12/18 10:08:30;;;;;;;;;;;;;;;;;;5032767;28;20015;-66
2020/12/18 10:10:56;;;;;;;;;;;;;;;;;;5034913;28;19925;-66
2020/12/18 10:13:23;;;;;;;;;;;;;;;;;;5035196;28;20328;-67
2020/12/18 10:15:49;;;;;;;;;;;;;;;;;;5034568;28;19932;-66
2020/12/18 10:18:16;;;;;;;;;;;;;;;;;;5035470;28;20312;-65
2020/12/18 10:20:43;;;;;;;;;;;;;;;;;;5035357;28;19925;-66
2020/12/18 10:23:09;;;;;;;;;;;;;;;;;;5033926;28;19932;-66
2020/12/18 10:25:36;;;;;;;;;;;;;;;;;;5033053;28;19929;-65
2020/12/18 10:28:02;;;;;;;;;;;;;;;;;;5034394;28;19986;-65
2020/12/18 10:30:29;;;;;;;;;;;;;;;;;;5021445;28;19925;-64
2020/12/18 10:32:55;;;;;;;;;;;;;;;;;;5034748;28;19925;-67
2020/12/18 10:35:22;;;;;;;;;;;;;;;;;;5034516;28;19932;-66
2020/12/18 10:37:50;;;;;;;;;;;;;;;;;;5033023;28;19990;-66
2020/12/18 10:40:16;;;;;;;;;;;;;;;;;;5034731;28;19979;-65
2020/12/18 10:42:43;;;;;;;;;;;;;;;;;;5029785;28;19990;-66
2020/12/18 10:45:09;;;;;;;;;;;;;;;;;;5034813;28;19968;-65
2020/12/18 10:47:36;;;;;;;;;;;;;;;;;;5034028;28;20479;-65
2020/12/18 10:50:02;;;;;;;;;;;;;;;;;;5024962;28;19925;-66
2020/12/18 10:52:29;;;;;;;;;;;;;;;;;;5028584;28;20020;-65
2020/12/18 10:54:55;;;;;;;;;;;;;;;;;;5032438;28;19925;-65
2020/12/18 10:57:22;;;;;;;;;;;;;;;;;;5046131;23;20209;-68
2020/12/18 10:59:48;;;;;;;;;;;;;;;;;;5023766;28;19964;-66
2020/12/18 11:02:15;;;;;;;;;;;;;;;;;;5036841;28;20380;-67
2020/12/18 11:04:41;;;;;;;;;;;;;;;;;;5034087;28;19935;-68
2020/12/18 11:07:08;;;;;;;;;;;;;;;;;;5033575;28;20397;-70
2020/12/18 11:09:35;;;;;;;;;;;;;;;;;;5001772;28;19926;-68
2020/12/18 11:12:02;;;;;;;;;;;;;;;;;;5011508;28;19956;-67
2020/12/18 11:14:28;;;;;;;;;;;;;;;;;;5006171;28;20560;-67
2020/12/18 11:16:55;;;;;;;;;;;;;;;;;;5014722;28;19929;-67
2020/12/18 11:19:21;;;;;;;;;;;;;;;;;;5012287;28;19983;-66
2020/12/18 11:21:48;;;;;;;;;;;;;;;;;;5013406;28;19949;-67
2020/12/18 11:24:15;;;;;;;;;;;;;;;;;;4998832;28;19933;-68
2020/12/18 11:26:41;;;;;;;;;;;;;;;;;;5009903;28;20372;-68
2020/12/18 11:29:08;;;;;;;;;;;;;;;;;;5001072;28;19965;-68
2020/12/18 11:31:34;;;;;;;;;;;;;;;;;;5005907;28;19926;-69
2020/12/18 11:34:01;;;;;;;;;;;;;;;;;;5004059;28;20032;-68
2020/12/18 11:36:27;;;;;;;;;;;;;;;;;;5014208;28;20017;-68
2020/12/18 11:38:54;;;;;;;;;;;;;;;;;;5012017;28;19926;-66
2020/12/18 11:41:20;;;;;;;;;;;;;;;;;;5011027;28;19976;-67
2020/12/18 11:43:47;;;;;;;;;;;;;;;;;;5008384;28;19951;-66
2020/12/18 11:46:13;;;;;;;;;;;;;;;;;;5015200;28;19971;-68
2020/12/18 11:48:40;;;;;;;;;;;;;;;;;;5013435;28;19926;-66
2020/12/18 11:51:07;;;;;;;;;;;;;;;;;;5014648;28;20293;-67
2020/12/18 11:53:34;;;;;;;;;;;;;;;;;;5016108;28;19926;-65
2020/12/18 11:56:01;;;;;;;;;;;;;;;;;;5015306;28;19925;-66
2020/12/18 11:58:27;;;;;;;;;;;;;;;;;;5001579;28;20005;-67
2020/12/18 12:00:56;;;;;;;;;;;;;;;;;;5016653;28;19975;-67
2020/12/18 12:03:22;;;;;;;;;;;;;;;;;;5011643;28;19964;-67
2020/12/18 12:05:49;;;;;;;;;;;;;;;;;;5010672;28;19991;-68
2020/12/18 12:08:15;;;;;;;;;;;;;;;;;;5019014;28;19980;-66
2020/12/18 12:10:42;;;;;;;;;;;;;;;;;;5005821;28;19929;-68
2020/12/18 12:13:08;;;;;;;;;;;;;;;;;;5004240;28;19926;-67
2020/12/18 12:15:35;;;;;;;;;;;;;;;;;;5012647;28;19961;-66
2020/12/18 12:18:03;;;;;;;;;;;;;;;;;;5008001;28;19940;-68
2020/12/18 12:20:29;;;;;;;;;;;;;;;;;;5006288;28;19926;-67
2020/12/18 12:22:56;;;;;;;;;;;;;;;;;;5024013;28;20223;-68
2020/12/18 12:25:22;;;;;;;;;;;;;;;;;;5009777;28;20041;-67
2020/12/18 12:27:49;;;;;;;;;;;;;;;;;;5006943;28;19956;-67
2020/12/18 12:30:15;;;;;;;;;;;;;;;;;;5010611;28;19930;-67
2020/12/18 12:32:42;;;;;;;;;;;;;;;;;;5011611;28;19979;-68
2020/12/18 12:35:09;;;;;;;;;;;;;;;;;;5012218;28;19956;-69
2020/12/18 12:37:36;;;;;;;;;;;;;;;;;;5004840;28;19961;-68
2020/12/18 12:40:02;;;;;;;;;;;;;;;;;;5002268;28;20032;-68
2020/12/18 12:42:29;;;;;;;;;;;;;;;;;;5000083;28;19955;-66
2020/12/18 12:44:55;;;;;;;;;;;;;;;;;;5000988;28;20751;-67
2020/12/18 12:47:22;;;;;;;;;;;;;;;;;;5000762;28;20024;-67
2020/12/18 12:49:48;;;;;;;;;;;;;;;;;;4997813;28;19975;-67
2020/12/18 12:52:15;;;;;;;;;;;;;;;;;;5001809;28;20028;-66
2020/12/18 12:54:41;;;;;;;;;;;;;;;;;;5002015;28;20023;-66
2020/12/18 12:57:08;;;;;;;;;;;;;;;;;;5002178;28;19964;-67
2020/12/18 12:59:34;;;;;;;;;;;;;;;;;;5000381;28;19934;-68
2020/12/18 13:02:01;;;;;;;;;;;;;;;;;;4998849;28;20324;-66
2020/12/18 13:04:27;;;;;;;;;;;;;;;;;;5001037;28;19940;-65
2020/12/18 13:06:54;;;;;;;;;;;;;;;;;;5002649;28;19933;-67
2020/12/18 13:09:21;;;;;;;;;;;;;;;;;;5001267;28;20032;-67
2020/12/18 13:11:47;;;;;;;;;;;;;;;;;;5001499;28;19988;-69
2020/12/18 13:14:14;;;;;;;;;;;;;;;;;;5000497;28;19947;-67
2020/12/18 13:16:40;;;;;;;;;;;;;;;;;;5007254;28;19926;-68
2020/12/18 13:19:07;;;;;;;;;;;;;;;;;;4997434;28;19948;-69
2020/12/18 13:21:33;;;;;;;;;;;;;;;;;;5009039;28;19926;-68
2020/12/18 13:24:00;;;;;;;;;;;;;;;;;;5006621;28;20327;-67
2020/12/18 13:26:26;;;;;;;;;;;;;;;;;;5014746;28;20297;-68
2020/12/18 13:28:53;;;;;;;;;;;;;;;;;;5017212;28;19973;-69
2020/12/18 13:31:19;;;;;;;;;;;;;;;;;;5013578;28;19969;-68
2020/12/18 13:33:46;;;;;;;;;;;;;;;;;;5017197;28;19999;-68
2020/12/18 13:36:12;;;;;;;;;;;;;;;;;;5018995;28;20487;-66
2020/12/18 13:38:39;;;;;;;;;;;;;;;;;;5031358;28;20071;-68
2020/12/18 13:41:05;;;;;;;;;;;;;;;;;;5025175;28;19934;-69
2020/12/18 13:43:32;;;;;;;;;;;;;;;;;;5011690;28;20020;-67
2020/12/18 13:45:58;;;;;;;;;;;;;;;;;;5008734;28;20025;-70
2020/12/18 13:48:25;;;;;;;;;;;;;;;;;;5009191;28;19934;-68
2020/12/18 13:50:51;;;;;;;;;;;;;;;;;;5014744;28;19929;-70
2020/12/18 13:53:18;;;;;;;;;;;;;;;;;;5018865;28;20461;-69
2020/12/18 13:55:48;;;;;;;;;;;;;;;;;;5009983;28;19929;-67
2020/12/18 13:58:14;;;;;;;;;;;;;;;;;;5007478;28;20296;-69
2020/12/18 14:00:41;;;;;;;;;;;;;;;;;;5008183;28;20023;-68
2020/12/18 14:03:07;;;;;;;;;;;;;;;;;;5017852;28;19925;-66
2020/12/18 14:05:34;;;;;;;;;;;;;;;;;;5021570;28;19932;-67
2020/12/18 14:08:00;;;;;;;;;;;;;;;;;;5018261;28;20314;-67
2020/12/18 14:10:27;;;;;;;;;;;;;;;;;;5008736;28;19937;-68
2020/12/18 14:12:53;;;;;;;;;;;;;;;;;;5007749;28;19936;-69
2020/12/18 14:15:20;;;;;;;;;;;;;;;;;;5006110;28;20012;-69
2020/12/18 14:17:46;;;;;;;;;;;;;;;;;;5008897;28;20523;-69
2020/12/18 14:20:13;;;;;;;;;;;;;;;;;;5008264;28;19979;-69
2020/12/18 14:22:39;;;;;;;;;;;;;;;;;;5009263;28;20079;-68
2020/12/18 14:25:06;;;;;;;;;;;;;;;;;;5008066;28;20331;-68
2020/12/18 14:27:32;;;;;;;;;;;;;;;;;;5008054;28;19933;-67
2020/12/18 14:29:59;;;;;;;;;;;;;;;;;;5007003;28;20022;-69
2020/12/18 14:32:25;;;;;;;;;;;;;;;;;;5009687;28;19938;-70
2020/12/18 14:34:53;;;;;;;;;;;;;;;;;;5007798;28;20441;-68
2020/12/18 14:37:19;;;;;;;;;;;;;;;;;;5005562;28;19930;-69
2020/12/18 14:39:46;;;;;;;;;;;;;;;;;;5005676;28;20046;-67
2020/12/18 14:42:12;;;;;;;;;;;;;;;;;;5006121;28;20383;-68
2020/12/18 14:44:39;;;;;;;;;;;;;;;;;;5004920;28;19956;-70
2020/12/18 14:47:05;;;;;;;;;;;;;;;;;;5005560;28;19936;-68
2020/12/18 14:49:32;;;;;;;;;;;;;;;;;;5006380;28;20016;-68
2020/12/18 14:51:58;;;;;;;;;;;;;;;;;;5004307;28;19940;-69
2020/12/18 14:54:25;;;;;;;;;;;;;;;;;;5003667;28;20544;-69
2020/12/18 14:56:51;;;;;;;;;;;;;;;;;;5000258;28;19925;-69
2020/12/18 14:59:18;;;;;;;;;;;;;;;;;;5004419;28;20337;-69
2020/12/18 15:01:49;;;;;;;;;;;;;;;;;;5006376;28;20030;-69
2020/12/18 15:04:15;;;;;;;;;;;;;;;;;;5003605;28;20314;-69
2020/12/18 15:06:44;;;;;;;;;;;;;;;;;;5003907;28;19933;-68
2020/12/18 15:09:10;;;;;;;;;;;;;;;;;;5002986;28;19948;-69
2020/12/18 15:11:37;;;;;;;;;;;;;;;;;;5002759;28;19992;-67
2020/12/18 15:14:03;;;;;;;;;;;;;;;;;;5003156;28;20358;-68
2020/12/18 15:16:30;;;;;;;;;;;;;;;;;;5007790;28;20507;-67
2020/12/18 15:18:56;;;;;;;;;;;;;;;;;;5013006;28;20016;-67
2020/12/18 15:21:23;;;;;;;;;;;;;;;;;;5012498;28;19931;-67
2020/12/18 15:23:49;;;;;;;;;;;;;;;;;;5011421;28;19930;-66
2020/12/18 15:26:16;;;;;;;;;;;;;;;;;;5011150;28;20201;-66
2020/12/18 15:28:42;;;;;;;;;;;;;;;;;;5014137;28;19983;-66
2020/12/18 15:31:09;;;;;;;;;;;;;;;;;;5007970;28;20017;-68
2020/12/18 15:33:35;;;;;;;;;;;;;;;;;;5013276;28;20404;-69
2020/12/18 15:36:02;;;;;;;;;;;;;;;;;;5010730;28;19926;-69
2020/12/18 15:38:28;;;;;;;;;;;;;;;;;;5013265;28;19936;-67
2020/12/18 15:40:55;;;;;;;;;;;;;;;;;;5003881;28;19981;-69
2020/12/18 15:43:21;;;;;;;;;;;;;;;;;;5013009;28;20316;-68
2020/12/18 15:45:48;;;;;;;;;;;;;;;;;;5012334;28;19929;-68
2020/12/18 15:48:17;;;;;;;;;;;;;;;;;;5010240;28;19930;-69
2020/12/18 15:50:43;;;;;;;;;;;;;;;;;;5005771;28;19934;-68
2020/12/18 15:53:11;;;;;;;;;;;;;;;;;;5009507;28;19940;-68
2020/12/18 15:55:37;;;;;;;;;;;;;;;;;;5010210;28;20172;-68
2020/12/18 15:58:06;;;;;;;;;;;;;;;;;;5011943;28;19925;-68
2020/12/18 16:00:32;;;;;;;;;;;;;;;;;;5013812;28;19925;-67
2020/12/18 16:02:59;;;;;;;;;;;;;;;;;;5013004;28;19976;-69
2020/12/18 16:05:26;;;;;;;;;;;;;;;;;;5016253;28;20366;-68
2020/12/18 16:07:52;;;;;;;;;;;;;;;;;;5017562;28;19949;-68
2020/12/18 16:10:19;;;;;;;;;;;;;;;;;;5018193;28;19932;-68
2020/12/18 16:12:45;;;;;;;;;;;;;;;;;;5014596;28;19925;-67
2020/12/18 16:15:12;;;;;;;;;;;;;;;;;;5012725;28;19926;-67
2020/12/18 16:17:38;;;;;;;;;;;;;;;;;;5016152;28;19925;-68
2020/12/18 16:20:05;;;;;;;;;;;;;;;;;;5017296;28;19993;-68
2020/12/18 16:22:31;;;;;;;;;;;;;;;;;;5015879;28;20359;-68
2020/12/18 16:24:58;;;;;;;;;;;;;;;;;;5015637;28;22234;-68
2020/12/18 16:27:24;;;;;;;;;;;;;;;;;;5013638;28;19925;-67
2020/12/18 16:29:51;;;;;;;;;;;;;;;;;;5015291;28;19929;-67
2020/12/18 16:32:17;;;;;;;;;;;;;;;;;;5017239;28;19933;-67
2020/12/18 16:34:44;;;;;;;;;;;;;;;;;;5011647;28;19936;-67
2020/12/18 16:37:10;;;;;;;;;;;;;;;;;;5012373;28;19926;-66
2020/12/18 16:39:38;;;;;;;;;;;;;;;;;;5012146;28;19980;-67